sensor_id;sensor_type;location;lat;lon;timestamp;temperature;humidity
43673;DHT22;41723;49.326;8.430;2023-07-28T00:01:35;19.10;99.90
43673;DHT22;41723;49.326;8.430;2023-07-28T00:04:00;19.10;99.90
43673;DHT22;41723;49.326;8.430;2023-07-28T00:06:28;19.10;99.90
43673;DHT22;41723;49.326;8.430;2023-07-28T00:08:53;19.10;99.90
43673;DHT22;41723;49.326;8.430;2023-07-28T00:11:19;19.10;99.90
43673;DHT22;41723;49.326;8.430;2023-07-28T00:13:44;19.10;99.90
43673;DHT22;41723;49.326;8.430;2023-07-28T00:16:10;19.10;99.90
43673;DHT22;41723;49.326;8.430;2023-07-28T00:18:35;19.10;99.90
43673;DHT22;41723;49.326;8.430;2023-07-28T00:21:01;19.00;99.90
43673;DHT22;41723;49.326;8.430;2023-07-28T00:23:27;19.00;99.90
43673;DHT22;41723;49.326;8.430;2023-07-28T00:25:53;19.10;99.90
43673;DHT22;41723;49.326;8.430;2023-07-28T00:28:18;19.10;99.90
43673;DHT22;41723;49.326;8.430;2023-07-28T00:30:44;19.10;99.90
43673;DHT22;41723;49.326;8.430;2023-07-28T00:33:09;19.10;99.90
43673;DHT22;41723;49.326;8.430;2023-07-28T00:35:36;19.10;99.90
43673;DHT22;41723;49.326;8.430;2023-07-28T00:38:02;19.10;99.90
43673;DHT22;41723;49.326;8.430;2023-07-28T00:40:27;19.10;99.90
43673;DHT22;41723;49.326;8.430;2023-07-28T00:42:53;19.10;99.90
43673;DHT22;41723;49.326;8.430;2023-07-28T00:45:19;19.10;99.90
43673;DHT22;41723;49.326;8.430;2023-07-28T00:47:45;19.10;99.90
43673;DHT22;41723;49.326;8.430;2023-07-28T00:50:11;19.10;99.90
43673;DHT22;41723;49.326;8.430;2023-07-28T00:52:40;19.00;99.90
43673;DHT22;41723;49.326;8.430;2023-07-28T00:55:07;19.00;99.90
43673;DHT22;41723;49.326;8.430;2023-07-28T00:57:33;19.00;99.90
43673;DHT22;41723;49.326;8.430;2023-07-28T00:59:59;18.90;99.90
43673;DHT22;41723;49.326;8.430;2023-07-28T01:02:25;18.90;99.90
43673;DHT22;41723;49.326;8.430;2023-07-28T01:04:51;18.90;99.90
43673;DHT22;41723;49.326;8.430;2023-07-28T01:07:18;18.90;99.90
43673;DHT22;41723;49.326;8.430;2023-07-28T01:09:47;18.90;99.90
43673;DHT22;41723;49.326;8.430;2023-07-28T01:12:15;18.90;99.90
43673;DHT22;41723;49.326;8.430;2023-07-28T01:14:41;18.90;99.90
43673;DHT22;41723;49.326;8.430;2023-07-28T01:17:06;18.90;99.90
43673;DHT22;41723;49.326;8.430;2023-07-28T01:19:32;18.90;99.90
43673;DHT22;41723;49.326;8.430;2023-07-28T01:27:31;18.90;99.90
43673;DHT22;41723;49.326;8.430;2023-07-28T01:29:57;18.90;99.90
43673;DHT22;41723;49.326;8.430;2023-07-28T01:32:23;19.00;99.90
43673;DHT22;41723;49.326;8.430;2023-07-28T01:34:49;18.90;99.90
43673;DHT22;41723;49.326;8.430;2023-07-28T01:37:14;18.90;99.90
43673;DHT22;41723;49.326;8.430;2023-07-28T01:39:40;18.90;99.90
43673;DHT22;41723;49.326;8.430;2023-07-28T01:42:05;18.90;99.90
43673;DHT22;41723;49.326;8.430;2023-07-28T01:44:31;18.90;99.90
43673;DHT22;41723;49.326;8.430;2023-07-28T01:46:57;18.90;99.90
43673;DHT22;41723;49.326;8.430;2023-07-28T01:49:22;18.90;99.90
43673;DHT22;41723;49.326;8.430;2023-07-28T01:51:48;18.90;99.90
43673;DHT22;41723;49.326;8.430;2023-07-28T01:54:13;18.90;99.90
43673;DHT22;41723;49.326;8.430;2023-07-28T01:56:39;18.90;99.90
43673;DHT22;41723;49.326;8.430;2023-07-28T01:59:04;18.90;99.90
43673;DHT22;41723;49.326;8.430;2023-07-28T02:01:30;18.90;99.90
43673;DHT22;41723;49.326;8.430;2023-07-28T02:03:56;18.90;99.90
43673;DHT22;41723;49.326;8.430;2023-07-28T02:06:21;18.90;99.90
43673;DHT22;41723;49.326;8.430;2023-07-28T02:08:47;18.90;99.90
43673;DHT22;41723;49.326;8.430;2023-07-28T02:11:12;18.90;99.90
43673;DHT22;41723;49.326;8.430;2023-07-28T02:13:38;18.90;99.90
43673;DHT22;41723;49.326;8.430;2023-07-28T02:16:04;18.90;99.90
43673;DHT22;41723;49.326;8.430;2023-07-28T02:18:30;18.90;99.90
43673;DHT22;41723;49.326;8.430;2023-07-28T02:20:55;18.90;99.90
43673;DHT22;41723;49.326;8.430;2023-07-28T02:23:21;18.90;99.90
43673;DHT22;41723;49.326;8.430;2023-07-28T02:25:46;18.90;99.90
43673;DHT22;41723;49.326;8.430;2023-07-28T02:28:12;18.90;99.90
43673;DHT22;41723;49.326;8.430;2023-07-28T02:30:37;18.90;99.90
43673;DHT22;41723;49.326;8.430;2023-07-28T02:33:05;18.90;99.90
43673;DHT22;41723;49.326;8.430;2023-07-28T02:35:31;18.90;99.90
43673;DHT22;41723;49.326;8.430;2023-07-28T02:37:57;18.90;99.90
43673;DHT22;41723;49.326;8.430;2023-07-28T02:40:23;18.90;99.90
43673;DHT22;41723;49.326;8.430;2023-07-28T02:42:49;18.90;99.90
43673;DHT22;41723;49.326;8.430;2023-07-28T02:45:15;18.90;99.90
43673;DHT22;41723;49.326;8.430;2023-07-28T02:47:40;18.90;99.90
43673;DHT22;41723;49.326;8.430;2023-07-28T02:50:06;18.90;99.90
43673;DHT22;41723;49.326;8.430;2023-07-28T02:52:32;18.90;99.90
43673;DHT22;41723;49.326;8.430;2023-07-28T02:54:57;18.90;99.90
43673;DHT22;41723;49.326;8.430;2023-07-28T02:57:23;18.90;99.90
43673;DHT22;41723;49.326;8.430;2023-07-28T02:59:49;18.90;99.90
43673;DHT22;41723;49.326;8.430;2023-07-28T03:02:15;18.90;99.90
43673;DHT22;41723;49.326;8.430;2023-07-28T03:04:41;18.90;99.90
43673;DHT22;41723;49.326;8.430;2023-07-28T03:07:15;18.90;99.90
43673;DHT22;41723;49.326;8.430;2023-07-28T03:09:43;18.80;99.90
43673;DHT22;41723;49.326;8.430;2023-07-28T03:12:10;18.90;99.90
43673;DHT22;41723;49.326;8.430;2023-07-28T03:14:37;18.90;99.90
43673;DHT22;41723;49.326;8.430;2023-07-28T03:17:03;18.90;99.90
43673;DHT22;41723;49.326;8.430;2023-07-28T03:19:28;18.90;99.90
43673;DHT22;41723;49.326;8.430;2023-07-28T03:21:54;18.90;99.90
43673;DHT22;41723;49.326;8.430;2023-07-28T03:24:20;18.90;99.90
43673;DHT22;41723;49.326;8.430;2023-07-28T03:26:46;19.00;99.90
43673;DHT22;41723;49.326;8.430;2023-07-28T03:29:11;18.90;99.90
43673;DHT22;41723;49.326;8.430;2023-07-28T03:31:37;18.90;99.90
43673;DHT22;41723;49.326;8.430;2023-07-28T03:34:04;18.90;99.90
43673;DHT22;41723;49.326;8.430;2023-07-28T03:36:31;18.90;99.90
43673;DHT22;41723;49.326;8.430;2023-07-28T03:38:57;18.90;99.90
43673;DHT22;41723;49.326;8.430;2023-07-28T03:41:23;18.90;99.90
43673;DHT22;41723;49.326;8.430;2023-07-28T03:43:48;18.80;99.90
43673;DHT22;41723;49.326;8.430;2023-07-28T03:46:14;18.80;99.90
43673;DHT22;41723;49.326;8.430;2023-07-28T03:48:40;18.80;99.90
43673;DHT22;41723;49.326;8.430;2023-07-28T03:51:05;18.80;99.90
43673;DHT22;41723;49.326;8.430;2023-07-28T03:53:31;18.90;99.90
43673;DHT22;41723;49.326;8.430;2023-07-28T03:56:00;18.90;99.90
43673;DHT22;41723;49.326;8.430;2023-07-28T03:58:26;18.80;99.90
43673;DHT22;41723;49.326;8.430;2023-07-28T04:00:52;18.80;99.90
43673;DHT22;41723;49.326;8.430;2023-07-28T04:03:18;18.70;99.90
43673;DHT22;41723;49.326;8.430;2023-07-28T04:05:44;18.70;99.90
43673;DHT22;41723;49.326;8.430;2023-07-28T04:08:10;18.70;99.90
43673;DHT22;41723;49.326;8.430;2023-07-28T04:10:35;18.70;99.90
43673;DHT22;41723;49.326;8.430;2023-07-28T04:13:01;18.70;99.90
43673;DHT22;41723;49.326;8.430;2023-07-28T04:15:27;18.60;99.90
43673;DHT22;41723;49.326;8.430;2023-07-28T04:17:52;18.60;99.90
43673;DHT22;41723;49.326;8.430;2023-07-28T04:20:18;18.60;99.90
43673;DHT22;41723;49.326;8.430;2023-07-28T04:22:44;18.60;99.90
43673;DHT22;41723;49.326;8.430;2023-07-28T04:25:09;18.60;99.90
43673;DHT22;41723;49.326;8.430;2023-07-28T04:27:37;18.60;99.90
43673;DHT22;41723;49.326;8.430;2023-07-28T04:30:05;18.60;99.90
43673;DHT22;41723;49.326;8.430;2023-07-28T04:32:30;18.60;99.90
43673;DHT22;41723;49.326;8.430;2023-07-28T04:35:02;18.60;99.90
43673;DHT22;41723;49.326;8.430;2023-07-28T04:37:40;18.60;99.90
43673;DHT22;41723;49.326;8.430;2023-07-28T04:40:06;18.50;99.90
43673;DHT22;41723;49.326;8.430;2023-07-28T04:42:35;18.60;99.90
43673;DHT22;41723;49.326;8.430;2023-07-28T04:45:02;18.60;99.90
43673;DHT22;41723;49.326;8.430;2023-07-28T04:47:28;18.60;99.90
43673;DHT22;41723;49.326;8.430;2023-07-28T04:49:54;18.60;99.90
43673;DHT22;41723;49.326;8.430;2023-07-28T04:52:19;18.60;99.90
43673;DHT22;41723;49.326;8.430;2023-07-28T04:55:04;18.60;99.90
43673;DHT22;41723;49.326;8.430;2023-07-28T04:57:31;18.60;99.90
43673;DHT22;41723;49.326;8.430;2023-07-28T04:59:57;18.50;99.90
43673;DHT22;41723;49.326;8.430;2023-07-28T05:02:23;18.50;99.90
43673;DHT22;41723;49.326;8.430;2023-07-28T05:04:48;18.50;99.90
43673;DHT22;41723;49.326;8.430;2023-07-28T05:07:14;18.50;99.90
43673;DHT22;41723;49.326;8.430;2023-07-28T05:09:40;18.50;99.90
43673;DHT22;41723;49.326;8.430;2023-07-28T05:12:06;18.50;99.90
43673;DHT22;41723;49.326;8.430;2023-07-28T05:14:39;18.50;99.90
43673;DHT22;41723;49.326;8.430;2023-07-28T05:17:04;18.50;99.90
43673;DHT22;41723;49.326;8.430;2023-07-28T05:19:37;18.50;99.90
43673;DHT22;41723;49.326;8.430;2023-07-28T05:22:21;18.50;99.90
43673;DHT22;41723;49.326;8.430;2023-07-28T05:24:50;18.50;99.90
43673;DHT22;41723;49.326;8.430;2023-07-28T05:27:16;18.60;99.90
43673;DHT22;41723;49.326;8.430;2023-07-28T05:29:45;18.60;99.90
43673;DHT22;41723;49.326;8.430;2023-07-28T05:32:10;18.60;99.90
43673;DHT22;41723;49.326;8.430;2023-07-28T05:35:15;18.60;99.90
43673;DHT22;41723;49.326;8.430;2023-07-28T05:37:40;18.60;99.90
43673;DHT22;41723;49.326;8.430;2023-07-28T05:40:06;18.60;99.90
43673;DHT22;41723;49.326;8.430;2023-07-28T05:42:33;18.60;99.90
43673;DHT22;41723;49.326;8.430;2023-07-28T05:44:59;18.60;99.90
43673;DHT22;41723;49.326;8.430;2023-07-28T05:47:25;18.60;99.90
43673;DHT22;41723;49.326;8.430;2023-07-28T05:49:51;18.60;99.90
43673;DHT22;41723;49.326;8.430;2023-07-28T05:52:19;18.60;99.90
43673;DHT22;41723;49.326;8.430;2023-07-28T05:54:45;18.70;99.90
43673;DHT22;41723;49.326;8.430;2023-07-28T05:57:10;18.70;99.90
43673;DHT22;41723;49.326;8.430;2023-07-28T05:59:36;18.70;99.90
43673;DHT22;41723;49.326;8.430;2023-07-28T06:02:02;18.70;99.90
43673;DHT22;41723;49.326;8.430;2023-07-28T06:04:50;18.70;99.90
43673;DHT22;41723;49.326;8.430;2023-07-28T06:07:16;18.70;99.90
43673;DHT22;41723;49.326;8.430;2023-07-28T06:09:42;18.80;99.90
43673;DHT22;41723;49.326;8.430;2023-07-28T06:12:08;18.80;99.90
43673;DHT22;41723;49.326;8.430;2023-07-28T06:14:34;18.80;99.90
43673;DHT22;41723;49.326;8.430;2023-07-28T06:17:00;18.80;99.90
43673;DHT22;41723;49.326;8.430;2023-07-28T06:19:29;18.80;99.90
43673;DHT22;41723;49.326;8.430;2023-07-28T06:21:55;18.80;99.90
43673;DHT22;41723;49.326;8.430;2023-07-28T06:24:20;18.80;99.90
43673;DHT22;41723;49.326;8.430;2023-07-28T06:26:46;18.80;99.90
43673;DHT22;41723;49.326;8.430;2023-07-28T06:29:12;18.80;99.90
43673;DHT22;41723;49.326;8.430;2023-07-28T06:31:37;18.80;99.90
43673;DHT22;41723;49.326;8.430;2023-07-28T06:34:03;18.80;99.90
43673;DHT22;41723;49.326;8.430;2023-07-28T06:36:29;18.90;99.90
43673;DHT22;41723;49.326;8.430;2023-07-28T06:38:54;18.90;99.90
43673;DHT22;41723;49.326;8.430;2023-07-28T06:41:21;18.90;99.90
43673;DHT22;41723;49.326;8.430;2023-07-28T06:43:46;18.90;99.90
43673;DHT22;41723;49.326;8.430;2023-07-28T06:46:14;19.00;99.90
43673;DHT22;41723;49.326;8.430;2023-07-28T06:48:39;19.00;99.90
43673;DHT22;41723;49.326;8.430;2023-07-28T06:51:06;19.00;99.90
43673;DHT22;41723;49.326;8.430;2023-07-28T06:53:31;19.10;99.90
43673;DHT22;41723;49.326;8.430;2023-07-28T06:55:57;19.00;99.90
43673;DHT22;41723;49.326;8.430;2023-07-28T06:58:23;19.10;99.90
43673;DHT22;41723;49.326;8.430;2023-07-28T07:00:48;19.10;99.90
43673;DHT22;41723;49.326;8.430;2023-07-28T07:03:14;19.10;99.90
43673;DHT22;41723;49.326;8.430;2023-07-28T07:05:39;19.20;99.90
43673;DHT22;41723;49.326;8.430;2023-07-28T07:08:06;19.30;99.90
43673;DHT22;41723;49.326;8.430;2023-07-28T07:10:31;19.30;99.90
43673;DHT22;41723;49.326;8.430;2023-07-28T07:12:57;19.30;99.90
43673;DHT22;41723;49.326;8.430;2023-07-28T07:15:22;19.30;99.90
43673;DHT22;41723;49.326;8.430;2023-07-28T07:17:48;19.40;99.90
43673;DHT22;41723;49.326;8.430;2023-07-28T07:20:13;19.40;99.90
43673;DHT22;41723;49.326;8.430;2023-07-28T07:22:40;19.30;99.90
43673;DHT22;41723;49.326;8.430;2023-07-28T07:25:06;19.40;99.90
43673;DHT22;41723;49.326;8.430;2023-07-28T07:27:33;19.30;99.90
43673;DHT22;41723;49.326;8.430;2023-07-28T07:29:58;19.30;99.90
43673;DHT22;41723;49.326;8.430;2023-07-28T07:32:27;19.40;99.90
43673;DHT22;41723;49.326;8.430;2023-07-28T07:34:52;19.40;99.90
43673;DHT22;41723;49.326;8.430;2023-07-28T07:37:18;19.40;99.90
43673;DHT22;41723;49.326;8.430;2023-07-28T07:39:44;19.50;99.90
43673;DHT22;41723;49.326;8.430;2023-07-28T07:42:10;19.50;99.90
43673;DHT22;41723;49.326;8.430;2023-07-28T07:44:37;19.60;99.90
43673;DHT22;41723;49.326;8.430;2023-07-28T07:47:10;19.50;99.90
43673;DHT22;41723;49.326;8.430;2023-07-28T07:49:36;19.60;99.90
43673;DHT22;41723;49.326;8.430;2023-07-28T07:52:02;19.60;99.90
43673;DHT22;41723;49.326;8.430;2023-07-28T07:54:27;19.60;99.90
43673;DHT22;41723;49.326;8.430;2023-07-28T07:56:53;19.70;99.90
43673;DHT22;41723;49.326;8.430;2023-07-28T07:59:18;19.70;99.90
43673;DHT22;41723;49.326;8.430;2023-07-28T08:01:44;19.70;99.90
43673;DHT22;41723;49.326;8.430;2023-07-28T08:04:10;19.70;99.90
43673;DHT22;41723;49.326;8.430;2023-07-28T08:06:36;19.70;99.90
43673;DHT22;41723;49.326;8.430;2023-07-28T08:09:01;19.70;99.90
43673;DHT22;41723;49.326;8.430;2023-07-28T08:11:28;19.80;99.90
43673;DHT22;41723;49.326;8.430;2023-07-28T08:13:53;19.80;99.90
43673;DHT22;41723;49.326;8.430;2023-07-28T08:16:20;19.90;99.90
43673;DHT22;41723;49.326;8.430;2023-07-28T08:18:46;19.90;99.90
43673;DHT22;41723;49.326;8.430;2023-07-28T08:21:12;19.90;99.90
43673;DHT22;41723;49.326;8.430;2023-07-28T08:23:37;19.90;99.90
43673;DHT22;41723;49.326;8.430;2023-07-28T08:26:03;19.90;99.90
43673;DHT22;41723;49.326;8.430;2023-07-28T08:28:29;19.90;99.90
43673;DHT22;41723;49.326;8.430;2023-07-28T08:30:55;19.90;99.90
43673;DHT22;41723;49.326;8.430;2023-07-28T08:33:22;20.00;99.90
43673;DHT22;41723;49.326;8.430;2023-07-28T08:35:47;20.00;99.90
43673;DHT22;41723;49.326;8.430;2023-07-28T08:38:13;19.90;99.90
43673;DHT22;41723;49.326;8.430;2023-07-28T08:40:40;19.90;99.90
43673;DHT22;41723;49.326;8.430;2023-07-28T08:43:05;19.90;99.90
43673;DHT22;41723;49.326;8.430;2023-07-28T08:45:31;19.90;99.90
43673;DHT22;41723;49.326;8.430;2023-07-28T08:47:57;19.90;99.90
43673;DHT22;41723;49.326;8.430;2023-07-28T08:50:23;19.90;99.90
43673;DHT22;41723;49.326;8.430;2023-07-28T08:52:48;19.90;99.90
43673;DHT22;41723;49.326;8.430;2023-07-28T08:55:15;19.90;99.90
43673;DHT22;41723;49.326;8.430;2023-07-28T08:57:42;20.00;99.90
43673;DHT22;41723;49.326;8.430;2023-07-28T09:00:09;20.00;99.90
43673;DHT22;41723;49.326;8.430;2023-07-28T09:02:35;20.10;99.90
43673;DHT22;41723;49.326;8.430;2023-07-28T09:05:02;20.20;99.90
43673;DHT22;41723;49.326;8.430;2023-07-28T09:07:33;20.30;99.90
43673;DHT22;41723;49.326;8.430;2023-07-28T09:09:59;20.40;99.90
43673;DHT22;41723;49.326;8.430;2023-07-28T09:12:26;20.50;99.90
43673;DHT22;41723;49.326;8.430;2023-07-28T09:14:57;20.50;99.90
43673;DHT22;41723;49.326;8.430;2023-07-28T09:17:23;20.50;99.90
43673;DHT22;41723;49.326;8.430;2023-07-28T09:19:55;20.50;99.90
43673;DHT22;41723;49.326;8.430;2023-07-28T09:22:21;20.50;99.90
43673;DHT22;41723;49.326;8.430;2023-07-28T09:24:47;20.50;99.90
43673;DHT22;41723;49.326;8.430;2023-07-28T09:27:20;20.50;99.90
43673;DHT22;41723;49.326;8.430;2023-07-28T09:29:50;20.50;99.90
43673;DHT22;41723;49.326;8.430;2023-07-28T09:32:16;20.50;99.90
43673;DHT22;41723;49.326;8.430;2023-07-28T09:34:41;20.60;99.90
43673;DHT22;41723;49.326;8.430;2023-07-28T09:37:07;20.60;99.90
43673;DHT22;41723;49.326;8.430;2023-07-28T09:39:34;20.60;99.90
43673;DHT22;41723;49.326;8.430;2023-07-28T09:42:01;20.60;99.90
43673;DHT22;41723;49.326;8.430;2023-07-28T09:44:27;20.60;99.90
43673;DHT22;41723;49.326;8.430;2023-07-28T09:46:53;20.60;99.90
43673;DHT22;41723;49.326;8.430;2023-07-28T09:49:27;20.70;99.90
43673;DHT22;41723;49.326;8.430;2023-07-28T09:51:53;20.70;99.90
43673;DHT22;41723;49.326;8.430;2023-07-28T09:54:22;20.80;99.90
43673;DHT22;41723;49.326;8.430;2023-07-28T09:56:54;20.90;99.90
43673;DHT22;41723;49.326;8.430;2023-07-28T09:59:22;21.00;99.90
43673;DHT22;41723;49.326;8.430;2023-07-28T10:01:49;21.00;99.90
43673;DHT22;41723;49.326;8.430;2023-07-28T10:04:15;21.10;99.90
43673;DHT22;41723;49.326;8.430;2023-07-28T10:06:40;21.20;99.90
43673;DHT22;41723;49.326;8.430;2023-07-28T10:09:06;21.10;99.90
43673;DHT22;41723;49.326;8.430;2023-07-28T10:11:32;21.20;99.90
43673;DHT22;41723;49.326;8.430;2023-07-28T10:13:57;21.20;99.90
43673;DHT22;41723;49.326;8.430;2023-07-28T10:16:30;21.10;99.90
43673;DHT22;41723;49.326;8.430;2023-07-28T10:18:56;21.10;99.90
43673;DHT22;41723;49.326;8.430;2023-07-28T10:21:26;21.00;99.90
43673;DHT22;41723;49.326;8.430;2023-07-28T10:23:55;20.90;99.90
43673;DHT22;41723;49.326;8.430;2023-07-28T10:26:31;20.90;99.90
43673;DHT22;41723;49.326;8.430;2023-07-28T10:29:07;21.00;99.90
43673;DHT22;41723;49.326;8.430;2023-07-28T10:31:33;21.00;99.90
43673;DHT22;41723;49.326;8.430;2023-07-28T10:33:58;21.10;99.90
43673;DHT22;41723;49.326;8.430;2023-07-28T10:39:00;21.20;99.90
43673;DHT22;41723;49.326;8.430;2023-07-28T10:41:26;21.20;99.90
43673;DHT22;41723;49.326;8.430;2023-07-28T10:43:51;21.30;99.90
43673;DHT22;41723;49.326;8.430;2023-07-28T10:46:18;21.30;99.90
43673;DHT22;41723;49.326;8.430;2023-07-28T10:48:44;21.30;99.90
43673;DHT22;41723;49.326;8.430;2023-07-28T10:51:11;21.30;99.90
43673;DHT22;41723;49.326;8.430;2023-07-28T10:53:37;21.40;99.90
43673;DHT22;41723;49.326;8.430;2023-07-28T10:56:03;21.30;99.90
43673;DHT22;41723;49.326;8.430;2023-07-28T10:58:30;21.40;99.90
43673;DHT22;41723;49.326;8.430;2023-07-28T11:00:56;21.40;99.90
43673;DHT22;41723;49.326;8.430;2023-07-28T11:03:22;21.40;99.90
43673;DHT22;41723;49.326;8.430;2023-07-28T11:05:48;21.50;99.90
43673;DHT22;41723;49.326;8.430;2023-07-28T11:08:14;21.50;99.90
43673;DHT22;41723;49.326;8.430;2023-07-28T11:10:40;21.50;99.90
43673;DHT22;41723;49.326;8.430;2023-07-28T11:13:06;21.50;99.90
43673;DHT22;41723;49.326;8.430;2023-07-28T11:15:32;21.40;99.90
43673;DHT22;41723;49.326;8.430;2023-07-28T11:17:58;21.40;99.90
43673;DHT22;41723;49.326;8.430;2023-07-28T11:20:25;21.50;99.90
43673;DHT22;41723;49.326;8.430;2023-07-28T11:22:52;21.40;99.90
43673;DHT22;41723;49.326;8.430;2023-07-28T11:25:18;21.50;99.90
43673;DHT22;41723;49.326;8.430;2023-07-28T11:27:44;21.50;99.90
43673;DHT22;41723;49.326;8.430;2023-07-28T11:30:11;21.60;99.90
43673;DHT22;41723;49.326;8.430;2023-07-28T11:32:37;21.60;99.90
43673;DHT22;41723;49.326;8.430;2023-07-28T11:35:04;21.70;99.90
43673;DHT22;41723;49.326;8.430;2023-07-28T11:37:31;21.70;99.90
43673;DHT22;41723;49.326;8.430;2023-07-28T11:39:59;21.60;99.90
43673;DHT22;41723;49.326;8.430;2023-07-28T11:42:25;21.60;99.90
43673;DHT22;41723;49.326;8.430;2023-07-28T11:44:51;21.60;99.90
43673;DHT22;41723;49.326;8.430;2023-07-28T11:47:17;21.60;99.90
43673;DHT22;41723;49.326;8.430;2023-07-28T11:49:50;21.60;99.90
43673;DHT22;41723;49.326;8.430;2023-07-28T11:52:16;21.50;99.90
43673;DHT22;41723;49.326;8.430;2023-07-28T11:54:43;21.60;99.90
43673;DHT22;41723;49.326;8.430;2023-07-28T11:57:09;21.60;99.90
43673;DHT22;41723;49.326;8.430;2023-07-28T11:59:34;21.50;99.90
43673;DHT22;41723;49.326;8.430;2023-07-28T12:02:04;21.50;99.90
43673;DHT22;41723;49.326;8.430;2023-07-28T12:04:31;21.50;99.90
43673;DHT22;41723;49.326;8.430;2023-07-28T12:12:17;21.40;99.90
43673;DHT22;41723;49.326;8.430;2023-07-28T12:14:43;21.30;99.90
43673;DHT22;41723;49.326;8.430;2023-07-28T12:17:14;21.20;99.90
43673;DHT22;41723;49.326;8.430;2023-07-28T12:19:57;21.20;99.90
43673;DHT22;41723;49.326;8.430;2023-07-28T12:22:23;21.20;99.90
43673;DHT22;41723;49.326;8.430;2023-07-28T12:24:48;21.20;99.90
43673;DHT22;41723;49.326;8.430;2023-07-28T12:27:14;21.10;99.90
43673;DHT22;41723;49.326;8.430;2023-07-28T12:29:41;21.00;99.90
43673;DHT22;41723;49.326;8.430;2023-07-28T12:32:07;20.90;99.90
43673;DHT22;41723;49.326;8.430;2023-07-28T12:34:33;20.80;99.90
43673;DHT22;41723;49.326;8.430;2023-07-28T12:36:58;20.70;99.90
43673;DHT22;41723;49.326;8.430;2023-07-28T12:39:24;20.60;99.90
43673;DHT22;41723;49.326;8.430;2023-07-28T12:41:49;20.60;99.90
43673;DHT22;41723;49.326;8.430;2023-07-28T12:44:19;20.60;99.90
43673;DHT22;41723;49.326;8.430;2023-07-28T12:46:44;20.50;99.90
43673;DHT22;41723;49.326;8.430;2023-07-28T12:49:10;20.50;99.90
43673;DHT22;41723;49.326;8.430;2023-07-28T12:51:35;20.50;99.90
43673;DHT22;41723;49.326;8.430;2023-07-28T12:54:01;20.40;99.90
43673;DHT22;41723;49.326;8.430;2023-07-28T12:56:27;20.30;99.90
43673;DHT22;41723;49.326;8.430;2023-07-28T12:58:52;20.30;99.90
43673;DHT22;41723;49.326;8.430;2023-07-28T13:01:18;20.30;99.90
43673;DHT22;41723;49.326;8.430;2023-07-28T13:03:43;20.30;99.90
43673;DHT22;41723;49.326;8.430;2023-07-28T13:06:09;20.40;99.90
43673;DHT22;41723;49.326;8.430;2023-07-28T13:08:35;20.40;99.90
43673;DHT22;41723;49.326;8.430;2023-07-28T13:11:01;20.40;99.90
43673;DHT22;41723;49.326;8.430;2023-07-28T13:13:26;20.50;99.90
43673;DHT22;41723;49.326;8.430;2023-07-28T13:15:55;20.40;99.90
43673;DHT22;41723;49.326;8.430;2023-07-28T13:18:20;20.40;99.90
43673;DHT22;41723;49.326;8.430;2023-07-28T13:20:46;20.40;99.90
43673;DHT22;41723;49.326;8.430;2023-07-28T13:23:12;20.40;99.90
43673;DHT22;41723;49.326;8.430;2023-07-28T13:25:37;20.40;99.90
43673;DHT22;41723;49.326;8.430;2023-07-28T13:28:04;20.40;99.90
43673;DHT22;41723;49.326;8.430;2023-07-28T13:30:29;20.30;99.90
43673;DHT22;41723;49.326;8.430;2023-07-28T13:32:55;20.20;99.90
43673;DHT22;41723;49.326;8.430;2023-07-28T13:35:21;20.20;99.90
43673;DHT22;41723;49.326;8.430;2023-07-28T13:37:47;20.20;99.90
43673;DHT22;41723;49.326;8.430;2023-07-28T13:40:12;20.20;99.90
43673;DHT22;41723;49.326;8.430;2023-07-28T13:42:38;20.10;99.90
43673;DHT22;41723;49.326;8.430;2023-07-28T13:45:03;20.10;99.90
43673;DHT22;41723;49.326;8.430;2023-07-28T13:47:29;20.00;99.90
43673;DHT22;41723;49.326;8.430;2023-07-28T13:49:55;20.10;99.90
43673;DHT22;41723;49.326;8.430;2023-07-28T13:52:20;20.00;99.90
43673;DHT22;41723;49.326;8.430;2023-07-28T13:54:46;20.00;99.90
43673;DHT22;41723;49.326;8.430;2023-07-28T13:57:12;20.00;99.90
43673;DHT22;41723;49.326;8.430;2023-07-28T13:59:38;20.00;99.90
43673;DHT22;41723;49.326;8.430;2023-07-28T14:02:04;20.00;99.90
43673;DHT22;41723;49.326;8.430;2023-07-28T14:04:29;20.00;99.90
43673;DHT22;41723;49.326;8.430;2023-07-28T14:06:55;20.00;99.90
43673;DHT22;41723;49.326;8.430;2023-07-28T14:09:20;20.00;99.90
43673;DHT22;41723;49.326;8.430;2023-07-28T14:11:46;20.00;99.90
43673;DHT22;41723;49.326;8.430;2023-07-28T14:14:11;20.00;99.90
43673;DHT22;41723;49.326;8.430;2023-07-28T14:16:37;20.00;99.90
43673;DHT22;41723;49.326;8.430;2023-07-28T14:19:02;20.00;99.90
43673;DHT22;41723;49.326;8.430;2023-07-28T14:21:29;20.00;99.90
43673;DHT22;41723;49.326;8.430;2023-07-28T14:23:54;20.10;99.90
43673;DHT22;41723;49.326;8.430;2023-07-28T14:26:20;20.00;99.90
43673;DHT22;41723;49.326;8.430;2023-07-28T14:28:45;20.00;99.90
43673;DHT22;41723;49.326;8.430;2023-07-28T14:31:11;20.00;99.90
43673;DHT22;41723;49.326;8.430;2023-07-28T14:33:36;20.00;99.90
43673;DHT22;41723;49.326;8.430;2023-07-28T14:36:02;20.10;99.90
43673;DHT22;41723;49.326;8.430;2023-07-28T14:38:28;20.00;99.90
43673;DHT22;41723;49.326;8.430;2023-07-28T14:40:53;20.00;99.90
43673;DHT22;41723;49.326;8.430;2023-07-28T14:43:19;20.00;99.90
43673;DHT22;41723;49.326;8.430;2023-07-28T14:45:44;20.10;99.90
43673;DHT22;41723;49.326;8.430;2023-07-28T14:48:10;20.10;99.90
43673;DHT22;41723;49.326;8.430;2023-07-28T14:50:36;20.10;99.90
43673;DHT22;41723;49.326;8.430;2023-07-28T14:53:01;20.10;99.90
43673;DHT22;41723;49.326;8.430;2023-07-28T14:55:27;20.10;99.90
43673;DHT22;41723;49.326;8.430;2023-07-28T14:57:53;20.10;99.90
43673;DHT22;41723;49.326;8.430;2023-07-28T15:00:18;20.10;99.90
43673;DHT22;41723;49.326;8.430;2023-07-28T15:02:44;20.10;99.90
43673;DHT22;41723;49.326;8.430;2023-07-28T15:05:10;20.10;99.90
43673;DHT22;41723;49.326;8.430;2023-07-28T15:07:35;20.10;99.90
43673;DHT22;41723;49.326;8.430;2023-07-28T15:10:02;20.10;99.90
43673;DHT22;41723;49.326;8.430;2023-07-28T15:12:28;20.10;99.90
43673;DHT22;41723;49.326;8.430;2023-07-28T15:14:54;20.10;99.90
43673;DHT22;41723;49.326;8.430;2023-07-28T15:17:20;20.10;99.90
43673;DHT22;41723;49.326;8.430;2023-07-28T15:19:46;20.10;99.90
43673;DHT22;41723;49.326;8.430;2023-07-28T15:22:11;20.10;99.90
43673;DHT22;41723;49.326;8.430;2023-07-28T15:24:37;20.10;99.90
43673;DHT22;41723;49.326;8.430;2023-07-28T15:27:03;20.10;99.90
43673;DHT22;41723;49.326;8.430;2023-07-28T15:29:28;20.10;99.90
43673;DHT22;41723;49.326;8.430;2023-07-28T15:31:54;20.10;99.90
43673;DHT22;41723;49.326;8.430;2023-07-28T15:34:20;20.10;99.90
43673;DHT22;41723;49.326;8.430;2023-07-28T15:36:46;20.10;99.90
43673;DHT22;41723;49.326;8.430;2023-07-28T15:39:12;20.10;99.90